map of CHC home
CHC - Airport
Location
City:  Christchurch, Canterbury (Waitaha), New Zealand
Name:Christchurch International Airport
ICAO:NZCH
IATA:CHC

Details
Type:Airport (Aerodrome, Airfield)
Use:Public/Civil, International (customs port of entry)
Latitude:4329'22"S (-43.489443)
Longitude:17232'04"E (172.534444)
Elevation:123 ft (37 m)
Variation:23.87E (WMM2015 magnetic declination)
0.07 annual change
Runways:3
Longest:10785 × 148 ft (3287 × 45 m), paved

Time
Time Zone:UTC+12 (DST+13)
Local Time:

Weather
METAR:NZCH 221730Z AUTO 04003KT 9999 OVC013/// 18/17 Q1013 NOSIG
TAF:NZCH 221605Z 2215/2312 VRB02KT 9999 FEW008 BKN011
BECMG 2222/2300 07012KT BKN020
BECMG 2306/2308 29005KT

Related Locations
Nearby:
Farthest:LEVF: 12422 mi / 19991 km
Ribadeo [Villaframil], GA, ES

Find:

   beyond  
but within

Other Information
Maps:
NOTAMs:
Links:
Sources:

  
flag of New Zealand   

Airport Diagram

Airport diagram for CHC

Larger airport diagram (OBSOLETE) from NGA

Sectional Chart

Flight Planning
at skyvector.com

Satellite Image

Google Maps Satellite view

 

Copyright © 2004-2018 Karl L. Swartz. All rights reserved.
The Great Circle Mapper name and logo are trademarks of the Great Circle Mapper.
All other trademarks mentioned herein belong to their respective owners.
Please see credits for attibutions and further copyright information.

  Follow gcmap on Facebook Follow gcmap on Twitter Follow gcmap on Google+ GCmap on LinkedIn

hCard Microformat

Geo Microformat